Sherbro International Airport

Jump to: basic info | weather | comments

Related pages: nearby airports | nearby navaids | notams | map

Basic information (top)

Codes: BTE GFBN
Location: lon 7.532420, lat -12.518900, elev 14 ft / 4 m msl
Status: medium_airport
Scheduled airline service: yes
Links: Wikipedia Mobile

Weather (top)

Current conditions for Lungi International Airport 77nm (142km) NNW (rec'd 2014/10/30 18:00Z):

GFLL 301800Z 24007KT 9999 SCT015 FEW028CB 29/24 Q1009 RMK CB-NE

Airport forecast for Lungi International Airport 77nm (142km) NNW (rec'd 2014/10/30 18:00Z):

TAF GFLL 301600Z 3018/3124 28010KT 9999 TS BKN011 FEW027CB 
      BECMG 3020/3023 8000 TSRA BKN010 FEW027CB PROB30 
      TEMPO 3102/3108 22004KT 3000 BR BKN007 
     FM311200 26008KT 9000 BKN010 FEW027CB

Latest comments (top)

No comments yet for Sherbro International Airport

More... (top)

See also NOTAMs and nearby airports and navaids, or visit the Sherbro International Airport page at the main OurAirports website..